Time;durP1;ratioP1;P1;durP2;ratioP2;P2;SDS_P1;SDS_P2;PMS_P1;PMS_P2;Temp;Humidity;BMP_temperature;BMP_pressure;BME280_temperature;BME280_humidity;BME280_pressure;Samples;Min_cycle;Max_cycle;Signal;HPM_P1;HPM_P2
2022/11/10 00:02:13;;;;;;;166.27;37.38;;;;;;;13.85;67.05;98926.28;4470823;32;20101;-85
2022/11/10 00:04:38;;;;;;;316.33;43.47;;;;;;;13.82;67.07;98924.69;4470600;32;20213;-84
2022/11/10 00:07:04;;;;;;;109.70;36.53;;;;;;;13.83;67.08;98922.88;4471863;32;20089;-84
2022/11/10 00:09:29;;;;;;;122.37;36.58;;;;;;;13.88;66.93;98924.28;4471952;32;20104;-85
2022/11/10 00:11:55;;;;;;;111.55;35.50;;;;;;;13.83;67.22;98925.53;4471915;32;20128;-84
2022/11/10 00:17:04;;;;;;;165.05;37.08;;;;;;;13.86;67.29;98925.34;4471931;32;20123;-84
2022/11/10 00:19:33;;;;;;;149.30;35.17;;;;;;;13.80;67.53;98936.34;4471487;32;20109;-84
2022/11/10 00:22:00;;;;;;;121.30;35.75;;;;;;;13.85;67.51;98937.75;4471951;32;20107;-84
2022/11/10 00:24:26;;;;;;;113.53;34.75;;;;;;;13.87;67.39;98941.13;4471762;32;20076;-84
2022/11/10 00:26:51;;;;;;;107.93;33.63;;;;;;;13.85;67.51;98951.00;4471825;32;20103;-84
2022/11/10 00:29:17;;;;;;;100.05;34.13;;;;;;;13.77;67.87;98946.19;4471756;32;20092;-84
2022/11/10 00:31:42;;;;;;;109.82;33.47;;;;;;;13.80;67.83;98939.84;4471730;32;20344;-84
2022/11/10 00:34:15;;;;;;;105.53;33.78;;;;;;;13.87;67.62;98942.91;4471725;32;20387;-85
2022/11/10 00:36:42;;;;;;;119.68;35.42;;;;;;;13.82;67.79;98945.88;4471586;32;20376;-85
2022/11/10 00:39:07;;;;;;;104.15;33.10;;;;;;;13.76;68.11;98947.13;4471584;32;20093;-85
2022/11/10 00:41:33;;;;;;;137.43;32.05;;;;;;;13.83;67.76;98947.59;4471723;32;20115;-85
2022/11/10 00:43:58;;;;;;;235.48;35.72;;;;;;;13.63;68.42;98954.16;4470716;32;20193;-85
2022/11/10 00:46:23;;;;;;;102.70;31.58;;;;;;;12.88;71.54;98950.91;4471615;32;20103;-85
2022/11/10 00:48:49;;;;;;;114.68;31.65;;;;;;;13.46;69.43;98951.75;4471567;32;20097;-85
2022/11/10 00:51:26;;;;;;;103.22;30.15;;;;;;;13.60;68.85;98950.84;4471648;32;20077;-85
2022/11/10 00:53:51;;;;;;;198.95;32.00;;;;;;;13.57;69.17;98946.63;4471623;32;20089;-85
2022/11/10 00:56:18;;;;;;;90.95;29.48;;;;;;;13.52;69.34;98949.56;4470452;32;20080;-86
2022/11/10 00:58:43;;;;;;;95.22;29.40;;;;;;;13.29;70.07;98947.47;4471612;32;20089;-86
2022/11/10 01:01:09;;;;;;;136.37;30.23;;;;;;;13.36;70.05;98948.84;4471622;32;20511;-86
2022/11/10 01:03:35;;;;;;;111.28;30.50;;;;;;;13.32;69.99;98942.88;4470277;32;20076;-86
2022/11/10 01:06:05;;;;;;;173.73;31.73;;;;;;;13.44;69.54;98941.25;4471552;32;20099;-85
2022/11/10 01:08:30;;;;;;;99.53;30.02;;;;;;;13.32;70.09;98942.03;4471470;32;20500;-86
2022/11/10 01:11:02;;;;;;;156.70;31.42;;;;;;;13.19;70.56;98941.94;4471554;32;20141;-86
2022/11/10 01:13:28;;;;;;;79.28;29.17;;;;;;;13.08;70.81;98942.63;4471533;32;20155;-86
2022/11/10 01:15:53;;;;;;;87.93;28.60;;;;;;;13.32;69.75;98932.31;4471515;32;20085;-86
2022/11/10 01:18:19;;;;;;;117.95;28.00;;;;;;;13.43;69.24;98939.56;4470153;32;20136;-86
2022/11/10 01:20:50;;;;;;;87.62;25.83;;;;;;;13.30;69.98;98936.00;4471080;32;20118;-86
2022/11/10 01:23:15;;;;;;;73.40;25.80;;;;;;;13.47;69.26;98937.59;4471484;32;20153;-86
2022/11/10 01:25:40;;;;;;;66.60;24.60;;;;;;;13.34;69.69;98930.41;4470175;32;20137;-86
2022/11/10 01:28:06;;;;;;;75.97;25.35;;;;;;;13.24;69.92;98937.22;4471453;32;20089;-86
2022/11/10 01:30:31;;;;;;;73.40;24.08;;;;;;;13.13;70.32;98943.19;4470208;32;20402;-86
2022/11/10 01:32:57;;;;;;;66.70;24.00;;;;;;;13.36;69.44;98947.03;4471330;32;20128;-86
2022/11/10 01:35:22;;;;;;;70.43;25.00;;;;;;;13.43;69.24;98949.31;4471340;32;20108;-86
2022/11/10 01:37:50;;;;;;;73.40;25.48;;;;;;;13.54;68.79;98950.31;4470211;32;20104;-84
2022/11/10 01:40:15;;;;;;;;;;;;;;;13.59;68.58;98942.06;4471643;32;20100;-84
2022/11/10 01:42:49;;;;;;;59.50;22.40;;;;;;;13.37;69.16;98948.75;4481127;32;19979;-85
2022/11/10 01:45:24;;;;;;;71.35;24.37;;;;;;;13.49;68.58;98947.13;4472816;32;20084;-84
2022/11/10 01:47:55;;;;;;;73.90;23.92;;;;;;;12.90;70.95;98954.31;4487020;32;20127;-85
2022/11/10 01:50:23;;;;;;;65.53;23.58;;;;;;;13.12;70.02;98946.75;4472777;32;20104;-84
2022/11/10 01:52:51;;;;;;;68.68;23.25;;;;;;;13.13;70.02;98944.97;4472680;32;20143;-84
2022/11/10 01:55:16;;;;;;;82.18;23.90;;;;;;;13.08;70.31;98952.34;4472342;32;20092;-85
2022/11/10 01:57:42;;;;;;;73.57;24.48;;;;;;;13.13;70.50;98944.97;4472590;32;20402;-84
2022/11/10 02:00:08;;;;;;;82.45;25.02;;;;;;;13.13;70.30;98948.47;4486752;32;20089;-84
2022/11/10 02:02:41;;;;;;;85.57;25.00;;;;;;;13.16;70.38;98950.06;4486776;32;20092;-84
2022/11/10 02:05:07;;;;;;;77.10;25.00;;;;;;;13.13;70.23;98951.13;4472536;32;20084;-85
2022/11/10 02:07:33;;;;;;;72.43;24.77;;;;;;;13.01;71.03;98951.88;4467266;32;20156;-85
2022/11/10 02:10:01;;;;;;;98.82;25.95;;;;;;;13.11;70.61;98955.63;4486722;32;20131;-84
2022/11/10 02:12:37;;;;;;;88.00;26.87;;;;;;;12.88;71.30;98964.16;4486709;32;20160;-84
2022/11/10 02:15:07;;;;;;;108.18;25.02;;;;;;;12.99;70.81;98959.88;4473512;32;20117;-85
2022/11/10 02:17:33;;;;;;;156.73;27.75;;;;;;;12.98;71.00;98949.44;4486605;32;20122;-84
2022/11/10 02:20:04;;;;;;;79.70;25.40;;;;;;;12.48;72.92;98956.84;4486102;32;20139;-83
2022/11/10 02:22:30;;;;;;;86.50;25.35;;;;;;;12.45;73.79;98966.75;4472145;32;20164;-85
2022/11/10 02:24:56;;;;;;;90.47;26.48;;;;;;;12.76;72.44;98963.94;4486515;32;20270;-86
2022/11/10 02:27:21;;;;;;;84.47;26.27;;;;;;;12.85;71.86;98965.19;4486322;32;20166;-86
2022/11/10 02:29:47;;;;;;;89.82;25.40;;;;;;;12.75;72.43;98967.53;4486236;32;20100;-86
2022/11/10 02:32:12;;;;;;;79.20;25.25;;;;;;;12.90;71.68;98965.78;4486066;32;20080;-86
2022/11/10 02:34:38;;;;;;;78.87;24.27;;;;;;;12.94;71.73;98967.28;4486303;32;20127;-86
2022/11/10 02:37:03;;;;;;;81.72;24.42;;;;;;;12.98;71.49;98970.59;4486218;32;20119;-86
2022/11/10 02:39:29;;;;;;;87.82;23.60;;;;;;;13.04;71.35;98972.84;4485030;32;20142;-86
2022/11/10 02:41:54;;;;;;;77.57;23.90;;;;;;;12.68;72.68;98975.94;4470463;32;20220;-86
2022/11/10 02:44:20;;;;;;;95.78;24.40;;;;;;;13.04;71.38;98978.13;4470338;32;20442;-83
2022/11/10 02:46:45;;;;;;;73.70;24.58;;;;;;;12.72;72.63;98978.28;4470280;32;20156;-84
2022/11/10 02:49:10;;;;;;;69.00;23.10;;;;;;;12.90;71.92;98972.81;4470138;32;20092;-84
2022/11/10 02:51:36;;;;;;;76.80;24.15;;;;;;;13.11;70.95;98976.78;4470269;32;20107;-85
2022/11/10 02:54:02;;;;;;;68.93;24.17;;;;;;;13.08;70.84;98969.06;4470416;32;20081;-84
2022/11/10 02:56:27;;;;;;;64.07;23.75;;;;;;;13.26;70.34;98971.50;4470316;32;20089;-84
2022/11/10 02:58:53;;;;;;;61.35;21.30;;;;;;;13.18;70.48;98979.91;4470237;32;20085;-84
2022/11/10 03:01:18;;;;;;;77.07;23.90;;;;;;;13.33;70.04;98980.81;4470097;32;20102;-83
2022/11/10 03:03:43;;;;;;;68.45;23.73;;;;;;;13.28;70.18;98988.97;4470028;32;20099;-84
2022/11/10 03:06:09;;;;;;;73.40;23.58;;;;;;;13.26;70.15;98988.22;4470542;32;20121;-84
2022/11/10 03:08:34;;;;;;;76.57;24.65;;;;;;;13.26;70.15;98995.31;4472322;32;20340;-84
2022/11/10 03:11:00;;;;;;;65.07;23.27;;;;;;;13.11;70.82;98997.94;4472325;32;20081;-83
2022/11/10 03:13:25;;;;;;;62.15;21.98;;;;;;;13.01;71.16;98999.47;4472185;32;20140;-84
2022/11/10 03:15:50;;;;;;;65.30;23.77;;;;;;;13.25;70.22;98999.78;4472260;32;20096;-83
2022/11/10 03:18:16;;;;;;;58.97;22.35;;;;;;;13.31;69.82;99010.00;4472311;32;20115;-83
2022/11/10 03:20:42;;;;;;;67.55;23.27;;;;;;;13.38;69.57;99010.44;4471938;32;20085;-84
2022/11/10 03:23:07;;;;;;;59.00;22.35;;;;;;;13.51;69.21;99006.09;4472495;32;20175;-83
2022/11/10 03:25:33;;;;;;;54.22;22.05;;;;;;;13.25;70.12;99014.78;4472481;32;20085;-83
2022/11/10 03:27:59;;;;;;;54.28;22.42;;;;;;;13.46;69.29;99005.56;4472356;32;20628;-83
2022/11/10 03:30:25;;;;;;;50.97;20.58;;;;;;;13.60;68.83;99012.63;4472420;32;20085;-83
2022/11/10 03:32:50;;;;;;;48.83;20.10;;;;;;;13.57;68.80;99015.44;4472124;32;20084;-83
2022/11/10 03:35:15;;;;;;;44.30;18.77;;;;;;;13.43;68.88;99013.66;4458028;32;20402;-83
2022/11/10 03:37:41;;;;;;;47.78;20.00;;;;;;;13.55;68.75;99018.19;4472076;32;20097;-85
2022/11/10 03:40:07;;;;;;;51.17;20.85;;;;;;;13.56;68.62;99013.75;4457791;32;20413;-85
2022/11/10 03:42:32;;;;;;;57.75;22.50;;;;;;;13.48;68.65;99008.94;4472101;32;20428;-84
2022/11/10 03:44:58;;;;;;;48.05;20.58;;;;;;;13.46;68.90;99013.50;4472313;32;20108;-83
2022/11/10 03:47:23;;;;;;;55.63;20.85;;;;;;;13.58;68.33;99017.16;4472338;32;20093;-83
2022/11/10 03:49:49;;;;;;;45.63;18.95;;;;;;;13.53;68.40;99013.94;4472079;32;20120;-83
2022/11/10 03:52:14;;;;;;;47.72;19.77;;;;;;;13.50;68.38;99020.28;4471905;32;20077;-83
2022/11/10 03:54:40;;;;;;;54.63;20.75;;;;;;;13.61;67.85;99024.03;4471977;32;20409;-83
2022/11/10 03:57:05;;;;;;;49.03;20.58;;;;;;;13.65;67.63;99028.19;4472007;32;20085;-83
2022/11/10 03:59:31;;;;;;;46.53;19.20;;;;;;;13.21;69.28;99026.50;4471889;32;20089;-83
2022/11/10 04:01:56;;;;;;;44.20;18.10;;;;;;;12.95;70.09;99032.44;4471968;32;20099;-83
2022/11/10 04:09:52;;;;;;;40.63;16.42;;;;;;;12.85;69.69;99026.00;4459881;32;20474;-86
2022/11/10 04:15:44;;;;;;;34.35;15.20;;;;;;;12.72;69.26;99035.59;4471932;32;20122;-85
2022/11/10 04:17:50;;;;;;;35.67;15.82;;;;;;;12.96;67.85;99035.91;4465109;32;20176;-85
2022/11/10 04:20:16;;;;;;;32.65;15.55;;;;;;;12.81;68.38;99042.16;4471456;32;20069;-85
2022/11/10 04:25:25;;;;;;;38.42;15.75;;;;;;;12.88;67.98;99046.09;4471847;32;20496;-84
2022/11/10 04:27:51;;;;;;;39.38;16.55;;;;;;;13.10;67.47;99045.69;4471787;32;20093;-87
2022/11/10 04:30:16;;;;;;;38.75;16.05;;;;;;;13.05;68.00;99056.53;4471718;32;20128;-86
2022/11/10 04:32:42;;;;;;;39.30;16.15;;;;;;;13.07;68.13;99053.78;4471581;32;20126;-85
2022/11/10 04:35:08;;;;;;;42.42;19.08;;;;;;;13.35;67.27;99053.00;4471670;32;20081;-85
2022/11/10 04:37:33;;;;;;;43.95;18.40;;;;;;;13.38;67.23;99052.78;4457471;32;20100;-85
2022/11/10 04:39:58;;;;;;;40.75;17.02;;;;;;;13.42;67.32;99049.00;4471667;32;20190;-85
2022/11/10 04:42:24;;;;;;;41.70;17.92;;;;;;;13.41;67.45;99052.62;4457428;32;20413;-85
2022/11/10 04:44:49;;;;;;;43.20;17.98;;;;;;;13.45;67.30;99053.28;4471687;32;20157;-85
2022/11/10 04:47:14;;;;;;;37.97;16.87;;;;;;;13.25;67.83;99051.81;4471502;32;20439;-85
2022/11/10 04:49:40;;;;;;;42.40;17.73;;;;;;;13.32;67.55;99053.16;4471426;32;20080;-84
2022/11/10 04:52:05;;;;;;;41.67;18.40;;;;;;;13.01;68.87;99052.38;4471624;32;20081;-85
2022/11/10 04:54:31;;;;;;;44.95;18.87;;;;;;;13.26;67.80;99054.38;4471647;32;20444;-85
2022/11/10 04:56:56;;;;;;;42.30;17.00;;;;;;;13.16;68.44;99058.53;4476411;32;20096;-86
2022/11/10 04:59:22;;;;;;;41.10;17.98;;;;;;;12.86;69.43;99063.84;4478574;32;20088;-84
2022/11/10 05:01:47;;;;;;;42.17;18.65;;;;;;;12.95;69.00;99064.16;4481727;32;20122;-85
2022/11/10 05:04:12;;;;;;;44.70;17.83;;;;;;;12.89;69.21;99077.75;4487301;32;20080;-84
2022/11/10 05:06:38;;;;;;;41.00;17.45;;;;;;;13.07;68.73;99082.88;4487265;32;20497;-84
2022/11/10 05:09:03;;;;;;;39.88;17.45;;;;;;;13.05;68.91;99087.41;4487187;32;20137;-85
2022/11/10 05:11:29;;;;;;;44.65;17.33;;;;;;;12.78;69.54;99090.75;4487178;32;20120;-84
2022/11/10 05:13:54;;;;;;;45.70;18.35;;;;;;;12.99;69.08;99088.63;4487099;32;20125;-85
2022/11/10 05:16:19;;;;;;;37.88;16.33;;;;;;;12.80;69.81;99094.16;4486949;32;20146;-85
2022/11/10 05:18:45;;;;;;;41.67;17.10;;;;;;;13.00;68.86;99093.00;4472862;32;20088;-85
2022/11/10 05:21:10;;;;;;;41.65;16.87;;;;;;;12.82;68.80;99094.06;4486821;32;20352;-84
2022/11/10 05:23:39;;;;;;;37.03;16.65;;;;;;;12.98;68.64;99090.44;4487073;32;20109;-84
2022/11/10 05:26:13;;;;;;;43.05;17.65;;;;;;;13.10;68.25;99088.84;4487106;32;20410;-84
2022/11/10 05:28:40;;;;;;;41.00;16.83;;;;;;;12.81;68.94;99101.16;4486753;32;20103;-84
2022/11/10 05:31:06;;;;;;;40.28;17.02;;;;;;;12.50;69.85;99104.75;4486829;32;20140;-84
2022/11/10 05:33:32;;;;;;;35.45;17.00;;;;;;;13.01;68.44;99099.97;4487067;32;20123;-84
2022/11/10 05:35:58;;;;;;;41.88;17.02;;;;;;;13.01;68.18;99101.78;4472735;32;20176;-85
2022/11/10 05:38:24;;;;;;;39.00;17.27;;;;;;;13.01;68.28;99109.69;4486963;32;20087;-86
2022/11/10 05:40:49;;;;;;;41.10;17.42;;;;;;;13.31;67.06;99112.34;4486767;32;20118;-84
2022/11/10 05:43:15;;;;;;;41.28;17.48;;;;;;;13.44;66.44;99120.38;4486801;32;20092;-86
2022/11/10 05:45:40;;;;;;;41.37;18.37;;;;;;;13.13;67.46;99127.47;4486860;32;20130;-85
2022/11/10 05:48:06;;;;;;;39.40;17.52;;;;;;;13.02;67.79;99125.50;4472622;32;20115;-86
2022/11/10 05:50:31;;;;;;;41.67;17.87;;;;;;;13.28;66.96;99131.84;4486788;32;20129;-86
2022/11/10 05:52:57;;;;;;;39.20;16.75;;;;;;;13.33;66.61;99136.91;4486718;32;20124;-87
2022/11/10 05:55:25;;;;;;;39.97;16.55;;;;;;;13.05;67.04;99130.56;4486689;32;20364;-87
2022/11/10 05:57:50;;;;;;;;;;;;;;;13.20;67.07;99142.03;4470093;32;20118;-83
2022/11/10 06:00:20;;;;;;;38.05;16.95;;;;;;;12.87;67.69;99142.25;4484919;32;19979;-84
2022/11/10 06:02:55;;;;;;;39.50;17.15;;;;;;;12.85;67.79;99141.50;4474178;32;20131;-82
2022/11/10 06:05:20;;;;;;;41.10;17.05;;;;;;;12.93;67.37;99152.47;4485899;31;20099;-82
2022/11/10 06:07:46;;;;;;;41.53;17.55;;;;;;;13.03;67.01;99152.78;4486477;32;20334;-83
2022/11/10 06:10:11;;;;;;;41.17;17.10;;;;;;;12.76;68.00;99164.00;4486486;32;20076;-84
2022/11/10 06:12:37;;;;;;;41.20;17.12;;;;;;;13.06;66.78;99157.91;4486515;32;20077;-84
2022/11/10 06:15:03;;;;;;;42.05;17.02;;;;;;;12.90;67.08;99165.84;4486692;32;20088;-83
2022/11/10 06:17:28;;;;;;;40.12;17.67;;;;;;;13.20;66.42;99172.94;4486787;32;20089;-84
2022/11/10 06:19:53;;;;;;;38.97;17.10;;;;;;;13.33;65.99;99179.25;4486125;32;20078;-84
2022/11/10 06:22:19;;;;;;;44.05;18.23;;;;;;;13.34;66.02;99178.28;4486239;32;20112;-84
2022/11/10 06:24:45;;;;;;;42.10;18.27;;;;;;;13.24;66.30;99191.19;4486849;32;20107;-84
2022/11/10 06:27:11;;;;;;;44.58;19.27;;;;;;;13.41;65.89;99190.22;4486710;32;20080;-84
2022/11/10 06:29:36;;;;;;;43.70;18.80;;;;;;;13.32;66.13;99198.69;4486457;32;20142;-84
2022/11/10 06:32:01;;;;;;;45.28;18.17;;;;;;;13.50;65.50;99196.75;4486565;32;20118;-84
2022/11/10 06:34:30;;;;;;;43.55;17.62;;;;;;;13.45;65.63;99198.84;4486500;32;20085;-82
2022/11/10 06:36:58;;;;;;;40.85;18.02;;;;;;;13.48;65.65;99191.56;4486200;32;20566;-85
2022/11/10 06:39:23;;;;;;;47.10;19.65;;;;;;;13.61;65.47;99199.59;4486062;32;20084;-85
2022/11/10 06:41:48;;;;;;;44.38;18.77;;;;;;;13.67;65.42;99201.88;4487022;32;20630;-84
2022/11/10 06:44:14;;;;;;;43.85;18.55;;;;;;;13.74;65.31;99203.22;4473933;32;20100;-83
2022/11/10 06:46:39;;;;;;;48.53;18.40;;;;;;;13.80;65.28;99211.72;4487991;32;20088;-82
2022/11/10 06:49:05;;;;;;;42.85;18.20;;;;;;;13.86;65.06;99208.69;4473817;32;20076;-85
2022/11/10 06:51:31;;;;;;;40.20;17.23;;;;;;;13.58;65.83;99215.69;4488055;32;20118;-84
2022/11/10 06:53:56;;;;;;;41.13;17.80;;;;;;;13.66;65.20;99223.16;4488003;32;20100;-83
2022/11/10 06:56:22;;;;;;;40.45;17.10;;;;;;;13.53;65.54;99223.87;4473620;32;20330;-83
2022/11/10 06:58:47;;;;;;;42.10;18.30;;;;;;;13.64;65.38;99236.50;4488047;32;20073;-82
2022/11/10 07:01:13;;;;;;;40.55;16.50;;;;;;;13.51;65.51;99235.53;4483387;32;20088;-83
2022/11/10 07:03:39;;;;;;;39.33;16.42;;;;;;;13.66;64.55;99247.00;4471708;32;20235;-81
2022/11/10 07:06:04;;;;;;;40.80;16.70;;;;;;;13.29;66.00;99249.09;4473245;32;20148;-82
2022/11/10 07:08:30;;;;;;;43.38;19.30;;;;;;;13.29;65.49;99247.34;4473284;32;20116;-78
2022/11/10 07:10:55;;;;;;;47.92;19.15;;;;;;;12.85;67.19;99255.19;4488141;32;20114;-78
2022/11/10 07:13:21;;;;;;;42.62;18.92;;;;;;;12.34;69.33;99258.84;4487858;32;20498;-83
2022/11/10 07:15:52;;;;;;;44.20;18.27;;;;;;;12.47;68.85;99261.66;4487113;32;20119;-82
2022/11/10 07:18:18;;;;;;;53.08;19.55;;;;;;;12.41;69.38;99259.34;4486614;32;20088;-83
2022/11/10 07:20:45;;;;;;;50.60;21.15;;;;;;;12.29;70.29;99266.16;4487495;32;20161;-82
2022/11/10 07:23:10;;;;;;;48.10;19.70;;;;;;;12.73;68.64;99262.84;4488151;32;20097;-83
2022/11/10 07:25:36;;;;;;;60.00;21.45;;;;;;;12.65;69.04;99265.09;4488116;32;20100;-83
2022/11/10 07:28:04;;;;;;;56.47;20.45;;;;;;;12.18;71.32;99265.88;4473397;32;20088;-83
2022/11/10 07:30:30;;;;;;;50.20;20.35;;;;;;;12.53;69.89;99271.03;4487938;32;20111;-83
2022/11/10 07:32:59;;;;;;;50.95;20.45;;;;;;;12.56;69.41;99277.00;4487930;32;20122;-83
2022/11/10 07:35:27;;;;;;;47.65;19.37;;;;;;;12.97;68.46;99275.63;4487904;32;20088;-83
2022/11/10 07:37:54;;;;;;;45.72;19.05;;;;;;;12.59;69.25;99278.63;4487940;32;20161;-83
2022/11/10 07:40:19;;;;;;;45.25;19.20;;;;;;;12.44;70.23;99287.38;4487998;32;20092;-83
2022/11/10 07:42:45;;;;;;;47.60;18.65;;;;;;;12.64;69.16;99288.94;4488061;32;20112;-83
2022/11/10 07:45:10;;;;;;;50.67;20.60;;;;;;;12.43;70.05;99298.91;4487996;32;20084;-83
2022/11/10 07:47:36;;;;;;;49.20;19.77;;;;;;;12.51;70.01;99296.69;4487706;32;20076;-83
2022/11/10 07:50:01;;;;;;;47.42;19.42;;;;;;;12.47;70.11;99305.72;4473351;32;20131;-83
2022/11/10 07:52:27;;;;;;;54.60;21.30;;;;;;;12.10;71.97;99305.88;4487376;32;20135;-83
2022/11/10 07:54:52;;;;;;;45.30;19.50;;;;;;;12.82;69.28;99302.94;4487807;32;20092;-84
2022/11/10 07:57:20;;;;;;;46.65;19.73;;;;;;;12.66;69.84;99300.28;4487655;32;20081;-83
2022/11/10 07:59:46;;;;;;;56.33;21.73;;;;;;;12.30;70.32;99309.25;4473120;32;20170;-83
2022/11/10 08:02:11;;;;;;;49.15;21.17;;;;;;;12.16;71.37;99305.56;4487399;32;20405;-83
2022/11/10 08:04:39;;;;;;;50.03;20.88;;;;;;;12.62;69.85;99304.88;4487738;32;20127;-83
2022/11/10 08:07:05;;;;;;;53.13;20.67;;;;;;;12.20;71.29;99311.53;4487525;32;20080;-83
2022/11/10 08:09:30;;;;;;;51.65;22.33;;;;;;;12.61;69.97;99310.25;4473163;32;20122;-83
2022/11/10 08:12:02;;;;;;;53.15;21.95;;;;;;;13.11;67.99;99314.53;4487708;32;20096;-83
2022/11/10 08:14:27;;;;;;;52.95;21.70;;;;;;;13.37;67.18;99303.34;4473218;32;20092;-84
2022/11/10 08:16:58;;;;;;;51.55;21.55;;;;;;;13.13;67.90;99328.50;4487551;32;20072;-83
2022/11/10 08:19:33;;;;;;;55.58;22.42;;;;;;;13.15;67.59;99326.62;4460373;32;20115;-83
2022/11/10 08:22:01;;;;;;;52.38;21.80;;;;;;;13.12;68.35;99326.81;4458294;32;20100;-83
2022/11/10 08:24:26;;;;;;;53.38;21.58;;;;;;;13.11;67.93;99325.94;4471868;32;20475;-84
2022/11/10 08:26:52;;;;;;;55.08;22.42;;;;;;;13.29;67.39;99328.50;4471828;32;20100;-83
2022/11/10 08:29:20;;;;;;;49.72;22.30;;;;;;;13.54;66.71;99326.19;4471801;32;20093;-83
2022/11/10 08:31:45;;;;;;;51.17;23.27;;;;;;;13.81;65.78;99328.16;4471809;32;20092;-83
2022/11/10 08:34:11;;;;;;;49.67;20.35;;;;;;;14.05;64.58;99328.47;4471665;32;20442;-83
2022/11/10 08:36:36;;;;;;;51.75;22.52;;;;;;;13.86;65.26;99334.03;4471638;32;20111;-83
2022/11/10 08:39:02;;;;;;;47.05;20.83;;;;;;;13.73;64.66;99343.63;4470347;32;20127;-83
2022/11/10 08:41:28;;;;;;;53.78;22.10;;;;;;;13.32;65.67;99352.19;4471733;32;20085;-83
2022/11/10 08:43:56;;;;;;;51.30;22.23;;;;;;;13.31;66.65;99353.97;4471754;32;20088;-83
2022/11/10 08:46:21;;;;;;;;;;;;;;;13.34;66.07;99355.59;4471933;32;20077;-83
2022/11/10 08:48:46;;;;;;;46.22;19.15;;;;;;;14.01;64.21;99352.59;4471668;32;19995;-83
2022/11/10 08:51:12;;;;;;;48.58;20.10;;;;;;;13.72;65.44;99356.03;4471877;32;20448;-83
2022/11/10 08:53:40;;;;;;;47.38;20.80;;;;;;;13.82;63.85;99353.69;4472163;32;20085;-83
2022/11/10 08:56:06;;;;;;;46.05;20.27;;;;;;;13.92;63.36;99367.25;4471967;32;20092;-83
2022/11/10 08:58:31;;;;;;;42.55;19.83;;;;;;;13.91;63.35;99374.34;4472022;32;20103;-83
2022/11/10 09:01:07;;;;;;;41.45;19.70;;;;;;;13.97;62.60;99375.78;4471786;32;20085;-83
2022/11/10 09:03:32;;;;;;;43.65;20.35;;;;;;;13.72;64.22;99381.66;4471365;32;20096;-83
2022/11/10 09:05:57;;;;;;;43.20;20.73;;;;;;;13.77;63.97;99380.44;4471419;32;20111;-83
2022/11/10 09:08:23;;;;;;;44.95;20.85;;;;;;;13.70;64.27;99397.63;4471838;32;20353;-83
2022/11/10 09:10:51;;;;;;;46.35;21.60;;;;;;;13.29;65.55;99397.28;4470446;32;20119;-83
2022/11/10 09:13:22;;;;;;;43.92;20.27;;;;;;;13.79;64.00;99401.56;4471765;32;20081;-83
2022/11/10 09:15:48;;;;;;;48.42;21.52;;;;;;;13.60;64.25;99407.06;4470498;32;20103;-83
2022/11/10 09:18:14;;;;;;;44.35;20.45;;;;;;;14.16;63.24;99400.22;4471828;32;20085;-83
2022/11/10 09:20:40;;;;;;;45.42;20.15;;;;;;;13.29;65.53;99411.38;4470179;32;20096;-83
2022/11/10 09:23:17;;;;;;;43.50;20.98;;;;;;;13.46;65.11;99410.47;4471629;32;20377;-83
2022/11/10 09:25:48;;;;;;;39.90;17.60;;;;;;;13.63;64.74;99417.44;4471587;32;20134;-83
2022/11/10 09:28:15;;;;;;;42.78;19.65;;;;;;;13.80;64.14;99413.84;4470484;32;20108;-83
2022/11/10 09:30:41;;;;;;;43.30;18.05;;;;;;;13.89;63.23;99421.25;4471511;32;20089;-84
2022/11/10 09:33:07;;;;;;;40.70;19.08;;;;;;;13.57;64.72;99420.44;4471589;32;20080;-84
2022/11/10 09:35:33;;;;;;;41.00;17.98;;;;;;;13.84;63.31;99410.06;4471435;32;20133;-84
2022/11/10 09:37:58;;;;;;;40.00;18.83;;;;;;;14.04;62.50;99402.75;4470180;32;20242;-83
2022/11/10 09:40:29;;;;;;;41.97;18.00;;;;;;;14.29;61.94;99410.97;4471042;32;20113;-83
2022/11/10 09:42:55;;;;;;;43.90;19.50;;;;;;;14.22;62.70;99414.91;4471402;32;20081;-83
2022/11/10 09:45:36;;;;;;;43.30;19.40;;;;;;;14.15;62.53;99413.56;4470192;32;20149;-83
2022/11/10 09:48:27;;;;;;;45.10;19.27;;;;;;;13.86;63.62;99424.06;4470238;32;20109;-83
2022/11/10 09:50:57;;;;;;;47.40;21.40;;;;;;;13.39;65.09;99425.00;4471207;32;20155;-83
2022/11/10 09:53:36;;;;;;;44.10;18.65;;;;;;;13.50;65.29;99427.91;4469948;32;20101;-83
2022/11/10 09:56:03;;;;;;;47.08;20.30;;;;;;;13.63;65.07;99427.19;4471188;32;20160;-83
2022/11/10 09:58:34;;;;;;;44.30;19.27;;;;;;;13.80;64.99;99440.31;4471154;32;20101;-83
2022/11/10 10:01:32;;;;;;;44.10;19.67;;;;;;;13.60;65.30;99437.94;4470063;32;20107;-83
2022/11/10 10:04:26;;;;;;;43.10;19.37;;;;;;;13.92;63.55;99418.41;4422438;32;20120;-83
2022/11/10 10:07:12;;;;;;;40.95;17.83;;;;;;;13.48;65.11;99428.91;4410070;32;20082;-83
2022/11/10 10:09:44;;;;;;;40.28;18.42;;;;;;;13.86;63.72;99433.81;4409901;32;20716;-83
2022/11/10 10:12:31;;;;;;;40.60;18.20;;;;;;;13.77;63.65;99437.84;4422345;32;20178;-83
2022/11/10 10:15:18;;;;;;;42.95;18.70;;;;;;;13.83;63.38;99441.94;4422074;32;20344;-83
2022/11/10 10:17:52;;;;;;;37.63;17.20;;;;;;;13.88;63.74;99438.06;4409542;32;20135;-83
2022/11/10 10:20:26;;;;;;;44.20;20.30;;;;;;;14.12;63.41;99435.81;4408964;32;20172;-82
2022/11/10 10:23:04;;;;;;;47.47;19.55;;;;;;;14.19;63.26;99440.75;4409464;32;20169;-83
2022/11/10 10:25:30;;;;;;;43.38;18.80;;;;;;;14.68;61.97;99445.75;4409626;32;20607;-83
2022/11/10 10:28:16;;;;;;;43.85;20.62;;;;;;;14.21;62.72;99449.44;4409225;32;20078;-83
2022/11/10 10:30:42;;;;;;;47.10;21.75;;;;;;;14.68;61.51;99459.91;4422079;32;20113;-83
2022/11/10 10:33:22;;;;;;;45.65;21.08;;;;;;;14.50;62.49;99447.72;4409194;32;20394;-83
2022/11/10 10:35:51;;;;;;;46.03;20.75;;;;;;;14.73;61.97;99451.66;4421951;32;20082;-83
2022/11/10 10:38:24;;;;;;;42.90;19.70;;;;;;;15.08;60.57;99438.84;4396506;32;20082;-83
2022/11/10 10:40:51;;;;;;;45.70;21.25;;;;;;;15.34;59.69;99437.22;4420635;32;20196;-83
2022/11/10 10:43:16;;;;;;;46.45;21.48;;;;;;;15.15;60.26;99447.28;4454944;32;20093;-83
2022/11/10 10:45:42;;;;;;;45.00;20.10;;;;;;;15.49;59.35;99443.34;4455103;32;20131;-84
2022/11/10 10:48:26;;;;;;;48.35;21.05;;;;;;;15.71;58.76;99448.09;4455069;32;20073;-83
2022/11/10 10:50:52;;;;;;;44.25;19.60;;;;;;;15.93;58.32;99449.38;4455090;32;20698;-83
2022/11/10 10:53:24;;;;;;;45.10;19.20;;;;;;;15.68;58.65;99439.47;4453727;32;20147;-83
2022/11/10 10:56:01;;;;;;;41.95;19.95;;;;;;;16.16;56.90;99445.19;4453652;32;20084;-83
2022/11/10 10:58:53;;;;;;;39.38;18.37;;;;;;;16.10;56.57;99440.28;4453868;32;20103;-83
2022/11/10 11:01:30;;;;;;;41.85;20.15;;;;;;;16.05;56.97;99448.59;4454864;32;20101;-83
2022/11/10 11:03:56;;;;;;;41.63;18.25;;;;;;;15.80;57.00;99448.47;4453020;32;20124;-83
2022/11/10 11:06:26;;;;;;;41.03;18.83;;;;;;;16.06;56.14;99441.47;4454829;32;20093;-84
2022/11/10 11:08:58;;;;;;;37.60;18.65;;;;;;;16.36;56.02;99448.31;4453299;32;20122;-83
2022/11/10 11:11:27;;;;;;;37.63;18.25;;;;;;;16.29;56.01;99438.09;4454573;32;20050;-83
2022/11/10 11:13:52;;;;;;;39.08;17.83;;;;;;;16.37;56.09;99448.22;4454481;32;20171;-84
2022/11/10 11:16:18;;;;;;;35.15;16.73;;;;;;;16.24;55.94;99448.19;4454582;32;20077;-84
2022/11/10 11:18:43;;;;;;;37.10;17.52;;;;;;;15.92;56.70;99466.28;4454491;32;20128;-83
2022/11/10 11:21:29;;;;;;;36.85;16.75;;;;;;;15.42;58.07;99459.78;4468407;32;20145;-83
2022/11/10 11:24:18;;;;;;;40.58;18.65;;;;;;;15.27;59.01;99461.59;4485627;32;20145;-83
2022/11/10 11:26:58;;;;;;;37.95;17.95;;;;;;;15.68;58.07;99471.34;4471505;32;20107;-84
2022/11/10 11:29:23;;;;;;;35.55;16.00;;;;;;;15.22;59.71;99472.50;4473792;32;20102;-84
2022/11/10 11:32:02;;;;;;;36.78;17.62;;;;;;;15.13;59.69;99479.22;4488029;32;20345;-83
2022/11/10 11:34:57;;;;;;;38.78;18.08;;;;;;;15.20;60.27;99473.53;4473723;32;20096;-83